PWSweather.com
Personal Weather Stations
Station Observations
WATERF01
WaterfordIE

WaterfordIE

Lat: 52.2412507, Lon: -7.1414691

Elevation: 65

Station Type: Davis Vantage Vue

Latest ConditionsUpdated 2:00:04 PM GMT Thursday, Nov 14, 2019
Currently Today's Max Today's Min Today's Average
Temperature 45.1°F7.3°C 45.1°F7.3°C 37.1°F2.8°C 41.5°F5.3°C
Dew Point 34.1°F1.2°C 39.2°F4.0°C 34.1°F1.2°C 36.8°F2.7°C
Winds 11.5 mph NNW18.5 kmh NNW 11.5 mph -18.5 kmh - - 7.2 mph 11.6 kmh
Wind Gusts 19.6 mph31.5 kmh 25.3 mph40.7 kmh - -
Humidity 65% 89% 65% 84%
Pressure 29.75 in1007.5 mb 29.75 in1007.5 mb 29.20 in988.8 mb -
Precipitation - 0.16 in4.1 mm - -
Hour Temp Dew Point Humidity Winds Wind Gusts Pressure Precip Precip Rate Daily Precip Total
02:00 PM 45.1°F7.3°C 34.1°F1.2°C 65% 11.5 mph NNW18.5 kmh NNW 19.6 mph31.5 kmh 29.75 in1007.5 mb - 0.00 in0.0 mm 0.16 in4.1 mm
01:50 PM 45.1°F7.3°C 34.4°F1.3°C 66% 5.8 mph NW9.3 kmh NW 13.8 mph22.2 kmh 29.74 in1007.1 mb - 0.00 in0.0 mm 0.16 in4.1 mm
01:40 PM 45.0°F7.2°C 35.1°F1.7°C 68% 6.9 mph NW11.1 kmh NW 18.4 mph29.6 kmh 29.74 in1007.1 mb - 0.00 in0.0 mm 0.16 in4.1 mm
01:30 PM 44.9°F7.2°C 35.0°F1.7°C 68% 9.2 mph NNW14.8 kmh NNW 16.1 mph25.9 kmh 29.74 in1007.1 mb - 0.00 in0.0 mm 0.16 in4.1 mm
01:20 PM 44.9°F7.2°C 35.3°F1.8°C 69% 11.5 mph NW18.5 kmh NW 20.7 mph33.3 kmh 29.73 in1006.8 mb - 0.00 in0.0 mm 0.16 in4.1 mm
01:10 PM 44.6°F7.0°C 35.1°F1.7°C 69% 11.5 mph NW18.5 kmh NW 19.6 mph31.5 kmh 29.73 in1006.8 mb - 0.00 in0.0 mm 0.16 in4.1 mm
01:00 PM 44.8°F7.1°C 36.0°F2.2°C 71% 6.9 mph NNW11.1 kmh NNW 23.0 mph37.0 kmh 29.73 in1006.8 mb - 0.00 in0.0 mm 0.16 in4.1 mm
12:50 PM 44.7°F7.1°C 35.9°F2.2°C 71% 10.4 mph NNW16.7 kmh NNW 16.1 mph25.9 kmh 29.73 in1006.8 mb - 0.00 in0.0 mm 0.16 in4.1 mm
12:40 PM 44.6°F7.0°C 35.8°F2.1°C 71% 9.2 mph NNW14.8 kmh NNW 19.6 mph31.5 kmh 29.72 in1006.4 mb - 0.00 in0.0 mm 0.16 in4.1 mm
12:30 PM 44.4°F6.9°C 35.9°F2.2°C 72% 9.2 mph NW14.8 kmh NW 16.1 mph25.9 kmh 29.72 in1006.4 mb - 0.00 in0.0 mm 0.16 in4.1 mm
12:20 PM 44.1°F6.7°C 36.0°F2.2°C 73% 9.2 mph NW14.8 kmh NW 16.1 mph25.9 kmh 29.71 in1006.1 mb - 0.00 in0.0 mm 0.16 in4.1 mm
12:10 PM 43.5°F6.4°C 36.1°F2.3°C 75% 6.9 mph NW11.1 kmh NW 15.0 mph24.1 kmh 29.71 in1006.1 mb - 0.00 in0.0 mm 0.16 in4.1 mm
12:00 PM 42.8°F6.0°C 35.8°F2.1°C 76% 5.8 mph NW9.3 kmh NW 16.1 mph25.9 kmh 29.71 in1006.1 mb - 0.00 in0.0 mm 0.16 in4.1 mm
11:50 AM 43.0°F6.1°C 36.0°F2.2°C 76% 9.2 mph NNW14.8 kmh NNW 16.1 mph25.9 kmh 29.71 in1006.1 mb - 0.00 in0.0 mm 0.16 in4.1 mm
11:40 AM 43.0°F6.1°C 36.3°F2.4°C 77% 9.2 mph NW14.8 kmh NW 16.1 mph25.9 kmh 29.71 in1006.1 mb - 0.00 in0.0 mm 0.16 in4.1 mm
11:30 AM 42.9°F6.1°C 36.5°F2.5°C 78% 6.9 mph NW11.1 kmh NW 12.7 mph20.4 kmh 29.70 in1005.8 mb - 0.00 in0.0 mm 0.16 in4.1 mm
11:20 AM 42.8°F6.0°C 36.4°F2.4°C 78% 9.2 mph NW14.8 kmh NW 19.6 mph31.5 kmh 29.70 in1005.8 mb - 0.00 in0.0 mm 0.16 in4.1 mm
11:10 AM 42.6°F5.9°C 36.5°F2.5°C 79% 5.8 mph NW9.3 kmh NW 9.2 mph14.8 kmh 29.70 in1005.8 mb - 0.00 in0.0 mm 0.16 in4.1 mm
11:00 AM 42.4°F5.8°C 36.3°F2.4°C 79% 5.8 mph NW9.3 kmh NW 9.2 mph14.8 kmh 29.70 in1005.8 mb - 0.00 in0.0 mm 0.16 in4.1 mm
10:50 AM 42.1°F5.6°C 36.4°F2.4°C 80% 5.8 mph NW9.3 kmh NW 15.0 mph24.1 kmh 29.70 in1005.8 mb - 0.00 in0.0 mm 0.16 in4.1 mm
10:40 AM 42.0°F5.6°C 36.6°F2.6°C 81% 6.9 mph NW11.1 kmh NW 13.8 mph22.2 kmh 29.69 in1005.4 mb - 0.00 in0.0 mm 0.16 in4.1 mm
10:30 AM 41.6°F5.3°C 36.2°F2.3°C 81% 8.1 mph NW13.0 kmh NW 15.0 mph24.1 kmh 29.69 in1005.4 mb - 0.00 in0.0 mm 0.16 in4.1 mm
10:20 AM 41.3°F5.2°C 35.9°F2.2°C 81% 8.1 mph NW13.0 kmh NW 13.8 mph22.2 kmh 29.68 in1005.1 mb - 0.00 in0.0 mm 0.16 in4.1 mm
10:10 AM 41.0°F5.0°C 35.9°F2.2°C 82% 5.8 mph NNW9.3 kmh NNW 13.8 mph22.2 kmh 29.68 in1005.1 mb - 0.00 in0.0 mm 0.16 in4.1 mm
10:00 AM 40.6°F4.8°C 35.6°F2.0°C 82% 5.8 mph NW9.3 kmh NW 11.5 mph18.5 kmh 29.67 in1004.7 mb - 0.00 in0.0 mm 0.16 in4.1 mm
09:50 AM 40.5°F4.7°C 35.5°F1.9°C 82% 5.8 mph NW9.3 kmh NW 12.7 mph20.4 kmh 29.66 in1004.4 mb - 0.00 in0.0 mm 0.16 in4.1 mm
09:40 AM 40.7°F4.8°C 35.6°F2.0°C 82% 6.9 mph NW11.1 kmh NW 8.1 mph13.0 kmh 29.66 in1004.4 mb - 0.00 in0.0 mm 0.16 in4.1 mm
09:30 AM 40.8°F4.9°C 35.7°F2.1°C 82% 6.9 mph NW11.1 kmh NW 18.4 mph29.6 kmh 29.65 in1004.1 mb - 0.00 in0.0 mm 0.16 in4.1 mm
09:20 AM 40.8°F4.9°C 35.8°F2.1°C 82% 2.3 mph NW3.7 kmh NW 8.1 mph13.0 kmh 29.65 in1004.1 mb - 0.00 in0.0 mm 0.16 in4.1 mm
09:10 AM 40.6°F4.8°C 35.9°F2.2°C 83% 4.6 mph NW7.4 kmh NW 11.5 mph18.5 kmh 29.64 in1003.7 mb - 0.00 in0.0 mm 0.16 in4.1 mm
09:00 AM 40.5°F4.7°C 35.7°F2.1°C 83% 4.6 mph NW7.4 kmh NW 8.1 mph13.0 kmh 29.64 in1003.7 mb - 0.00 in0.0 mm 0.16 in4.1 mm
08:50 AM 40.4°F4.7°C 35.6°F2.0°C 83% 6.9 mph NW11.1 kmh NW 11.5 mph18.5 kmh 29.62 in1003.0 mb - 0.00 in0.0 mm 0.16 in4.1 mm
08:40 AM 40.3°F4.6°C 35.6°F2.0°C 83% 6.9 mph NW11.1 kmh NW 11.5 mph18.5 kmh 29.61 in1002.7 mb - 0.00 in0.0 mm 0.16 in4.1 mm
08:30 AM 40.3°F4.6°C 35.5°F1.9°C 83% 8.1 mph NNW13.0 kmh NNW 15.0 mph24.1 kmh 29.61 in1002.7 mb - 0.00 in0.0 mm 0.16 in4.1 mm
08:20 AM 40.4°F4.7°C 35.6°F2.0°C 83% 6.9 mph NW11.1 kmh NW 13.8 mph22.2 kmh 29.60 in1002.4 mb - 0.00 in0.0 mm 0.16 in4.1 mm
08:10 AM 40.5°F4.7°C 35.7°F2.1°C 83% 8.1 mph NW13.0 kmh NW 12.7 mph20.4 kmh 29.60 in1002.4 mb - 0.00 in0.0 mm 0.16 in4.1 mm
07:50 AM 42.2°F5.7°C 38.9°F3.8°C 88% 8.1 mph NW13.0 kmh NW 11.5 mph18.5 kmh 29.46 in997.6 mb - 0.00 in0.0 mm 0.16 in4.1 mm
07:40 AM 42.2°F5.7°C 38.9°F3.8°C 88% 8.1 mph NW13.0 kmh NW 25.3 mph40.7 kmh 29.46 in997.6 mb - 0.00 in0.0 mm 0.16 in4.1 mm
07:30 AM 42.2°F5.7°C 38.9°F3.8°C 88% 8.1 mph NW13.0 kmh NW 13.8 mph22.2 kmh 29.46 in997.6 mb - 0.00 in0.0 mm 0.16 in4.1 mm
07:20 AM 42.2°F5.7°C 38.9°F3.8°C 88% 9.2 mph NW14.8 kmh NW 16.1 mph25.9 kmh 29.46 in997.6 mb - 0.00 in0.0 mm 0.16 in4.1 mm
07:10 AM 42.2°F5.7°C 38.9°F3.8°C 88% 9.2 mph NW14.8 kmh NW 18.4 mph29.6 kmh 29.46 in997.6 mb - 0.00 in0.0 mm 0.16 in4.1 mm
07:00 AM 42.2°F5.7°C 38.9°F3.8°C 88% 8.1 mph NW13.0 kmh NW 13.8 mph22.2 kmh 29.46 in997.6 mb - 0.00 in0.0 mm 0.16 in4.1 mm
06:50 AM 42.2°F5.7°C 38.9°F3.8°C 88% 8.1 mph NW13.0 kmh NW 15.0 mph24.1 kmh 29.46 in997.6 mb - 0.00 in0.0 mm 0.16 in4.1 mm
06:40 AM 42.2°F5.7°C 38.9°F3.8°C 88% 8.1 mph NW13.0 kmh NW 13.8 mph22.2 kmh 29.46 in997.6 mb - 0.00 in0.0 mm 0.16 in4.1 mm
06:30 AM 42.2°F5.7°C 38.9°F3.8°C 88% 5.8 mph NW9.3 kmh NW 21.9 mph35.2 kmh 29.46 in997.6 mb - 0.00 in0.0 mm 0.16 in4.1 mm
06:20 AM 42.2°F5.7°C 38.9°F3.8°C 88% 5.8 mph NW9.3 kmh NW 15.0 mph24.1 kmh 29.46 in997.6 mb - 0.00 in0.0 mm 0.16 in4.1 mm
06:10 AM 42.2°F5.7°C 38.9°F3.8°C 88% 6.9 mph NW11.1 kmh NW 16.1 mph25.9 kmh 29.46 in997.6 mb - 0.00 in0.0 mm 0.16 in4.1 mm
06:00 AM 42.2°F5.7°C 38.9°F3.8°C 88% 6.9 mph NW11.1 kmh NW 16.1 mph25.9 kmh 29.46 in997.6 mb - 0.00 in0.0 mm 0.16 in4.1 mm
05:50 AM 42.2°F5.7°C 38.9°F3.8°C 88% 10.4 mph NW16.7 kmh NW 16.1 mph25.9 kmh 29.46 in997.6 mb - 0.00 in0.0 mm 0.16 in4.1 mm
05:40 AM 42.2°F5.7°C 38.9°F3.8°C 88% 9.2 mph NW14.8 kmh NW 13.8 mph22.2 kmh 29.46 in997.6 mb - 0.00 in0.0 mm 0.16 in4.1 mm
05:30 AM 42.2°F5.7°C 38.9°F3.8°C 88% 10.4 mph NW16.7 kmh NW 13.8 mph22.2 kmh 29.46 in997.6 mb - 0.00 in0.0 mm 0.16 in4.1 mm
05:20 AM 42.2°F5.7°C 38.9°F3.8°C 88% 9.2 mph NW14.8 kmh NW 13.8 mph22.2 kmh 29.46 in997.6 mb - 0.00 in0.0 mm 0.16 in4.1 mm
05:10 AM 42.2°F5.7°C 38.9°F3.8°C 88% 6.9 mph NW11.1 kmh NW 15.0 mph24.1 kmh 29.46 in997.6 mb - 0.00 in0.0 mm 0.16 in4.1 mm
05:00 AM 42.0°F5.6°C 38.7°F3.7°C 88% 6.9 mph NW11.1 kmh NW 11.5 mph18.5 kmh 29.46 in997.6 mb - 0.00 in0.0 mm 0.16 in4.1 mm
04:50 AM 42.0°F5.6°C 38.7°F3.7°C 88% 8.1 mph NW13.0 kmh NW 16.1 mph25.9 kmh 29.44 in997.0 mb - 0.00 in0.0 mm 0.16 in4.1 mm
04:40 AM 42.2°F5.7°C 39.1°F3.9°C 89% 6.9 mph NNW11.1 kmh NNW 15.0 mph24.1 kmh 29.43 in996.6 mb - 0.00 in0.0 mm 0.16 in4.1 mm
04:30 AM 42.0°F5.6°C 39.0°F3.9°C 89% 4.6 mph NNE7.4 kmh NNE 12.7 mph20.4 kmh 29.41 in995.9 mb - 0.00 in0.0 mm 0.16 in4.1 mm
04:20 AM 41.9°F5.5°C 38.9°F3.8°C 89% 6.9 mph NNW11.1 kmh NNW 20.7 mph33.3 kmh 29.40 in995.6 mb - 0.00 in0.0 mm 0.16 in4.1 mm
04:10 AM 41.9°F5.5°C 38.9°F3.8°C 89% 5.8 mph W9.3 kmh W 13.8 mph22.2 kmh 29.39 in995.3 mb - 0.00 in0.0 mm 0.16 in4.1 mm
04:00 AM 42.0°F5.6°C 39.0°F3.9°C 89% 5.8 mph NNW9.3 kmh NNW 8.1 mph13.0 kmh 29.38 in994.9 mb - 0.00 in0.0 mm 0.16 in4.1 mm
03:50 AM 42.2°F5.7°C 39.2°F4.0°C 89% 6.9 mph NW11.1 kmh NW 12.7 mph20.4 kmh 29.36 in994.2 mb - 0.00 in0.0 mm 0.16 in4.1 mm
03:40 AM 42.1°F5.6°C 39.1°F3.9°C 89% 8.1 mph NW13.0 kmh NW 18.4 mph29.6 kmh 29.35 in993.9 mb - 0.00 in0.0 mm 0.16 in4.1 mm
03:30 AM 42.2°F5.7°C 39.2°F4.0°C 89% 8.1 mph N13.0 kmh N 20.7 mph33.3 kmh 29.34 in993.6 mb - 0.00 in0.0 mm 0.16 in4.1 mm
03:20 AM 42.0°F5.6°C 39.0°F3.9°C 89% 6.9 mph NNW11.1 kmh NNW 19.6 mph31.5 kmh 29.34 in993.6 mb - 0.00 in0.0 mm 0.16 in4.1 mm
03:10 AM 41.9°F5.5°C 38.9°F3.8°C 89% 9.2 mph NW14.8 kmh NW 16.1 mph25.9 kmh 29.33 in993.2 mb - 0.00 in0.0 mm 0.16 in4.1 mm
03:00 AM 41.7°F5.4°C 38.7°F3.7°C 89% 9.2 mph NW14.8 kmh NW 13.8 mph22.2 kmh 29.32 in992.9 mb - 0.00 in0.0 mm 0.16 in4.1 mm
02:50 AM 41.7°F5.4°C 38.7°F3.7°C 89% 6.9 mph NW11.1 kmh NW 12.7 mph20.4 kmh 29.31 in992.6 mb - 0.01 in0.3 mm 0.16 in4.1 mm
02:40 AM 41.4°F5.2°C 38.4°F3.6°C 89% 8.1 mph NW13.0 kmh NW 18.4 mph29.6 kmh 29.30 in992.2 mb - 0.03 in0.8 mm 0.16 in4.1 mm
02:30 AM 41.2°F5.1°C 38.2°F3.4°C 89% 8.1 mph NW13.0 kmh NW 9.2 mph14.8 kmh 29.29 in991.9 mb - 0.05 in1.3 mm 0.16 in4.1 mm
02:20 AM 40.7°F4.8°C 37.7°F3.2°C 89% 6.9 mph NNW11.1 kmh NNW 13.8 mph22.2 kmh 29.28 in991.5 mb - 0.07 in1.8 mm 0.16 in4.1 mm
02:10 AM 38.8°F3.8°C 35.8°F2.1°C 89% 3.5 mph NW5.6 kmh NW 6.9 mph11.1 kmh 29.27 in991.2 mb - 0.09 in2.3 mm 0.16 in4.1 mm
02:00 AM 37.9°F3.3°C 35.0°F1.7°C 89% 5.8 mph NW9.3 kmh NW 11.5 mph18.5 kmh 29.27 in991.2 mb - 0.11 in2.8 mm 0.16 in4.1 mm
01:50 AM 37.4°F3.0°C 34.5°F1.4°C 89% 8.1 mph NW13.0 kmh NW 12.7 mph20.4 kmh 29.26 in990.9 mb - 0.13 in3.3 mm 0.15 in3.8 mm
01:40 AM 37.1°F2.8°C 34.2°F1.2°C 89% 5.8 mph NW9.3 kmh NW 8.1 mph13.0 kmh 29.26 in990.9 mb - 0.12 in3.0 mm 0.13 in3.3 mm
01:30 AM 37.3°F2.9°C 34.4°F1.3°C 89% 5.8 mph NW9.3 kmh NW 6.9 mph11.1 kmh 29.25 in990.5 mb - 0.10 in2.5 mm 0.11 in2.8 mm
01:20 AM 37.5°F3.1°C 34.6°F1.4°C 89% 4.6 mph NW7.4 kmh NW 6.9 mph11.1 kmh 29.25 in990.5 mb - 0.09 in2.3 mm 0.09 in2.3 mm
01:10 AM 37.6°F3.1°C 34.7°F1.5°C 89% 5.8 mph NW9.3 kmh NW 11.5 mph18.5 kmh 29.25 in990.5 mb - 0.08 in2.0 mm 0.08 in2.0 mm
01:00 AM 37.8°F3.2°C 34.8°F1.6°C 89% 4.6 mph NW7.4 kmh NW 6.9 mph11.1 kmh 29.24 in990.2 mb - 0.05 in1.3 mm 0.05 in1.3 mm
12:50 AM 37.8°F3.2°C 34.9°F1.6°C 89% 3.5 mph NW5.6 kmh NW 6.9 mph11.1 kmh 29.24 in990.2 mb - 0.02 in0.5 mm 0.02 in0.5 mm
12:40 AM 37.9°F3.3°C 34.9°F1.6°C 89% 5.8 mph NNW9.3 kmh NNW 8.1 mph13.0 kmh 29.23 in989.8 mb - 0.01 in0.3 mm 0.01 in0.3 mm
12:30 AM 37.9°F3.3°C 34.9°F1.6°C 89% 4.6 mph NW7.4 kmh NW 6.9 mph11.1 kmh 29.22 in989.5 mb - 0.01 in0.3 mm 0.01 in0.3 mm
12:20 AM 37.7°F3.2°C 34.8°F1.6°C 89% 5.8 mph NW9.3 kmh NW 6.9 mph11.1 kmh 29.21 in989.2 mb - 0.00 in0.0 mm 0.00 in0.0 mm
12:10 AM 37.5°F3.1°C 34.6°F1.4°C 89% 6.9 mph NW11.1 kmh NW 9.2 mph14.8 kmh 29.21 in989.2 mb - 0.00 in0.0 mm 0.00 in0.0 mm
12:00 AM 37.5°F3.1°C 34.6°F1.4°C 89% 5.8 mph NW9.3 kmh NW 8.1 mph13.0 kmh 29.20 in988.8 mb - 0.00 in0.0 mm 0.00 in0.0 mm